sensor_id;sensor_type;location;lat;lon;timestamp;P1;durP1;ratioP1;P2;durP2;ratioP2
55063;SDS011;40963;52.168;21.296;2023-05-07T00:01:48;6.70;;;3.30;;
55063;SDS011;40963;52.168;21.296;2023-05-07T00:04:14;5.25;;;3.50;;
55063;SDS011;40963;52.168;21.296;2023-05-07T00:06:40;5.97;;;4.00;;
55063;SDS011;40963;52.168;21.296;2023-05-07T00:09:05;5.25;;;3.40;;
55063;SDS011;40963;52.168;21.296;2023-05-07T00:11:31;4.22;;;3.40;;
55063;SDS011;40963;52.168;21.296;2023-05-07T00:13:58;4.60;;;3.00;;
55063;SDS011;40963;52.168;21.296;2023-05-07T00:16:23;6.97;;;3.30;;
55063;SDS011;40963;52.168;21.296;2023-05-07T00:18:49;6.03;;;3.53;;
55063;SDS011;40963;52.168;21.296;2023-05-07T00:21:15;4.85;;;3.53;;
55063;SDS011;40963;52.168;21.296;2023-05-07T00:23:40;5.82;;;3.35;;
55063;SDS011;40963;52.168;21.296;2023-05-07T00:26:06;11.55;;;3.28;;
55063;SDS011;40963;52.168;21.296;2023-05-07T00:28:32;7.13;;;3.47;;
55063;SDS011;40963;52.168;21.296;2023-05-07T00:30:57;7.03;;;3.42;;
55063;SDS011;40963;52.168;21.296;2023-05-07T00:33:23;6.15;;;3.45;;
55063;SDS011;40963;52.168;21.296;2023-05-07T00:35:51;8.00;;;3.70;;
55063;SDS011;40963;52.168;21.296;2023-05-07T00:38:17;7.22;;;3.70;;
55063;SDS011;40963;52.168;21.296;2023-05-07T00:40:42;4.00;;;3.22;;
55063;SDS011;40963;52.168;21.296;2023-05-07T00:43:08;5.40;;;3.25;;
55063;SDS011;40963;52.168;21.296;2023-05-07T00:45:33;6.35;;;3.47;;
55063;SDS011;40963;52.168;21.296;2023-05-07T00:48:00;4.55;;;3.50;;
55063;SDS011;40963;52.168;21.296;2023-05-07T00:50:27;5.82;;;3.55;;
55063;SDS011;40963;52.168;21.296;2023-05-07T00:52:53;3.53;;;2.50;;
55063;SDS011;40963;52.168;21.296;2023-05-07T00:55:20;6.30;;;3.17;;
55063;SDS011;40963;52.168;21.296;2023-05-07T00:57:46;5.88;;;3.30;;
55063;SDS011;40963;52.168;21.296;2023-05-07T01:00:12;4.72;;;3.08;;
55063;SDS011;40963;52.168;21.296;2023-05-07T01:02:38;5.95;;;3.38;;
55063;SDS011;40963;52.168;21.296;2023-05-07T01:05:04;5.43;;;3.38;;
55063;SDS011;40963;52.168;21.296;2023-05-07T01:07:33;9.63;;;3.90;;
55063;SDS011;40963;52.168;21.296;2023-05-07T01:09:59;4.25;;;3.03;;
55063;SDS011;40963;52.168;21.296;2023-05-07T01:12:28;6.70;;;2.97;;
55063;SDS011;40963;52.168;21.296;2023-05-07T01:14:55;5.80;;;3.13;;
55063;SDS011;40963;52.168;21.296;2023-05-07T01:17:21;5.40;;;3.10;;
55063;SDS011;40963;52.168;21.296;2023-05-07T01:19:47;5.82;;;2.80;;
55063;SDS011;40963;52.168;21.296;2023-05-07T01:22:13;5.40;;;3.90;;
55063;SDS011;40963;52.168;21.296;2023-05-07T01:24:41;7.90;;;2.90;;
55063;SDS011;40963;52.168;21.296;2023-05-07T01:27:07;5.10;;;3.30;;
55063;SDS011;40963;52.168;21.296;2023-05-07T01:29:33;5.35;;;3.25;;
55063;SDS011;40963;52.168;21.296;2023-05-07T01:31:59;6.70;;;3.28;;
55063;SDS011;40963;52.168;21.296;2023-05-07T01:34:27;6.78;;;3.72;;
55063;SDS011;40963;52.168;21.296;2023-05-07T01:36:55;4.32;;;3.42;;
55063;SDS011;40963;52.168;21.296;2023-05-07T01:39:26;5.10;;;3.20;;
55063;SDS011;40963;52.168;21.296;2023-05-07T01:41:56;4.88;;;3.10;;
55063;SDS011;40963;52.168;21.296;2023-05-07T01:44:24;5.43;;;3.15;;
55063;SDS011;40963;52.168;21.296;2023-05-07T01:46:50;3.45;;;2.92;;
55063;SDS011;40963;52.168;21.296;2023-05-07T01:49:16;3.28;;;2.88;;
55063;SDS011;40963;52.168;21.296;2023-05-07T01:51:42;3.47;;;2.95;;
55063;SDS011;40963;52.168;21.296;2023-05-07T01:54:08;6.90;;;3.78;;
55063;SDS011;40963;52.168;21.296;2023-05-07T01:56:34;3.42;;;2.90;;
55063;SDS011;40963;52.168;21.296;2023-05-07T01:59:00;4.90;;;3.22;;
55063;SDS011;40963;52.168;21.296;2023-05-07T02:01:25;5.35;;;3.00;;
55063;SDS011;40963;52.168;21.296;2023-05-07T02:03:51;4.43;;;3.42;;
55063;SDS011;40963;52.168;21.296;2023-05-07T02:06:16;6.68;;;3.25;;
55063;SDS011;40963;52.168;21.296;2023-05-07T02:08:42;5.40;;;2.78;;
55063;SDS011;40963;52.168;21.296;2023-05-07T02:11:08;7.30;;;3.33;;
55063;SDS011;40963;52.168;21.296;2023-05-07T02:13:34;4.18;;;2.90;;
55063;SDS011;40963;52.168;21.296;2023-05-07T02:15:59;4.57;;;2.95;;
55063;SDS011;40963;52.168;21.296;2023-05-07T02:18:25;4.18;;;2.65;;
55063;SDS011;40963;52.168;21.296;2023-05-07T02:20:51;3.85;;;3.00;;
55063;SDS011;40963;52.168;21.296;2023-05-07T02:23:17;3.92;;;3.20;;
55063;SDS011;40963;52.168;21.296;2023-05-07T02:25:42;3.60;;;2.80;;
55063;SDS011;40963;52.168;21.296;2023-05-07T02:28:08;7.22;;;3.17;;
55063;SDS011;40963;52.168;21.296;2023-05-07T02:30:34;3.72;;;2.88;;
55063;SDS011;40963;52.168;21.296;2023-05-07T02:32:59;3.90;;;3.10;;
55063;SDS011;40963;52.168;21.296;2023-05-07T02:35:25;4.25;;;2.95;;
55063;SDS011;40963;52.168;21.296;2023-05-07T02:37:51;5.78;;;3.00;;
55063;SDS011;40963;52.168;21.296;2023-05-07T02:40:16;5.60;;;3.22;;
55063;SDS011;40963;52.168;21.296;2023-05-07T02:42:42;3.33;;;3.00;;
55063;SDS011;40963;52.168;21.296;2023-05-07T02:45:08;5.90;;;2.83;;
55063;SDS011;40963;52.168;21.296;2023-05-07T02:47:34;3.63;;;2.80;;
55063;SDS011;40963;52.168;21.296;2023-05-07T02:49:59;4.05;;;3.17;;
55063;SDS011;40963;52.168;21.296;2023-05-07T02:52:25;5.35;;;3.10;;
55063;SDS011;40963;52.168;21.296;2023-05-07T02:54:50;4.18;;;2.97;;
55063;SDS011;40963;52.168;21.296;2023-05-07T02:57:16;4.78;;;3.00;;
55063;SDS011;40963;52.168;21.296;2023-05-07T02:59:42;6.00;;;2.80;;
55063;SDS011;40963;52.168;21.296;2023-05-07T03:02:08;4.15;;;2.55;;
55063;SDS011;40963;52.168;21.296;2023-05-07T03:04:33;4.20;;;2.75;;
55063;SDS011;40963;52.168;21.296;2023-05-07T03:06:59;4.55;;;2.90;;
55063;SDS011;40963;52.168;21.296;2023-05-07T03:09:25;3.55;;;2.80;;
55063;SDS011;40963;52.168;21.296;2023-05-07T03:11:51;3.53;;;2.42;;
55063;SDS011;40963;52.168;21.296;2023-05-07T03:14:16;2.90;;;2.60;;
55063;SDS011;40963;52.168;21.296;2023-05-07T03:16:42;5.88;;;2.30;;
55063;SDS011;40963;52.168;21.296;2023-05-07T03:19:07;3.78;;;2.53;;
55063;SDS011;40963;52.168;21.296;2023-05-07T03:21:33;5.15;;;2.90;;
55063;SDS011;40963;52.168;21.296;2023-05-07T03:23:59;5.32;;;2.53;;
55063;SDS011;40963;52.168;21.296;2023-05-07T03:26:25;3.80;;;2.63;;
55063;SDS011;40963;52.168;21.296;2023-05-07T03:28:51;3.22;;;2.33;;
55063;SDS011;40963;52.168;21.296;2023-05-07T03:31:17;5.57;;;2.75;;
55063;SDS011;40963;52.168;21.296;2023-05-07T03:33:50;7.43;;;2.65;;
55063;SDS011;40963;52.168;21.296;2023-05-07T03:36:16;4.90;;;2.50;;
55063;SDS011;40963;52.168;21.296;2023-05-07T03:38:43;3.65;;;2.45;;
55063;SDS011;40963;52.168;21.296;2023-05-07T03:41:08;3.55;;;2.50;;
55063;SDS011;40963;52.168;21.296;2023-05-07T03:43:34;3.15;;;2.58;;
55063;SDS011;40963;52.168;21.296;2023-05-07T03:46:00;3.50;;;2.58;;
55063;SDS011;40963;52.168;21.296;2023-05-07T03:48:25;3.50;;;2.50;;
55063;SDS011;40963;52.168;21.296;2023-05-07T03:50:51;3.92;;;2.65;;
55063;SDS011;40963;52.168;21.296;2023-05-07T03:53:17;2.95;;;2.10;;
55063;SDS011;40963;52.168;21.296;2023-05-07T03:55:42;2.45;;;2.13;;
55063;SDS011;40963;52.168;21.296;2023-05-07T03:58:08;3.75;;;2.55;;
55063;SDS011;40963;52.168;21.296;2023-05-07T04:00:33;2.72;;;2.30;;
55063;SDS011;40963;52.168;21.296;2023-05-07T04:03:03;4.70;;;2.85;;
55063;SDS011;40963;52.168;21.296;2023-05-07T04:05:29;5.47;;;2.80;;
55063;SDS011;40963;52.168;21.296;2023-05-07T04:07:55;4.95;;;2.63;;
55063;SDS011;40963;52.168;21.296;2023-05-07T04:10:22;3.88;;;2.70;;
55063;SDS011;40963;52.168;21.296;2023-05-07T04:12:48;5.10;;;2.22;;
55063;SDS011;40963;52.168;21.296;2023-05-07T04:15:13;3.45;;;2.30;;
55063;SDS011;40963;52.168;21.296;2023-05-07T04:17:39;2.88;;;2.20;;
55063;SDS011;40963;52.168;21.296;2023-05-07T04:20:06;3.28;;;2.47;;
55063;SDS011;40963;52.168;21.296;2023-05-07T04:22:35;4.30;;;2.88;;
55063;SDS011;40963;52.168;21.296;2023-05-07T04:25:01;5.72;;;2.10;;
55063;SDS011;40963;52.168;21.296;2023-05-07T04:27:27;2.50;;;2.30;;
55063;SDS011;40963;52.168;21.296;2023-05-07T04:29:53;3.00;;;2.40;;
55063;SDS011;40963;52.168;21.296;2023-05-07T04:32:20;3.35;;;2.53;;
55063;SDS011;40963;52.168;21.296;2023-05-07T04:34:46;3.08;;;2.70;;
55063;SDS011;40963;52.168;21.296;2023-05-07T04:37:12;3.90;;;2.60;;
55063;SDS011;40963;52.168;21.296;2023-05-07T04:39:37;3.35;;;2.60;;
55063;SDS011;40963;52.168;21.296;2023-05-07T04:42:03;4.35;;;2.42;;
55063;SDS011;40963;52.168;21.296;2023-05-07T04:44:29;2.38;;;2.17;;
55063;SDS011;40963;52.168;21.296;2023-05-07T04:46:56;2.55;;;2.13;;
55063;SDS011;40963;52.168;21.296;2023-05-07T04:49:22;4.80;;;2.53;;
55063;SDS011;40963;52.168;21.296;2023-05-07T04:51:47;3.60;;;2.53;;
55063;SDS011;40963;52.168;21.296;2023-05-07T04:54:13;2.85;;;2.13;;
55063;SDS011;40963;52.168;21.296;2023-05-07T04:56:38;5.28;;;2.53;;
55063;SDS011;40963;52.168;21.296;2023-05-07T04:59:04;2.85;;;2.58;;
55063;SDS011;40963;52.168;21.296;2023-05-07T05:01:30;4.50;;;2.80;;
55063;SDS011;40963;52.168;21.296;2023-05-07T05:03:56;3.15;;;2.40;;
55063;SDS011;40963;52.168;21.296;2023-05-07T05:06:22;4.47;;;2.75;;
55063;SDS011;40963;52.168;21.296;2023-05-07T05:08:47;5.90;;;2.53;;
55063;SDS011;40963;52.168;21.296;2023-05-07T05:11:13;3.13;;;2.65;;
55063;SDS011;40963;52.168;21.296;2023-05-07T05:13:39;3.78;;;2.72;;
55063;SDS011;40963;52.168;21.296;2023-05-07T05:16:05;4.78;;;2.30;;
55063;SDS011;40963;52.168;21.296;2023-05-07T05:18:31;5.70;;;2.60;;
55063;SDS011;40963;52.168;21.296;2023-05-07T05:20:56;2.00;;;1.83;;
55063;SDS011;40963;52.168;21.296;2023-05-07T05:23:22;3.35;;;2.30;;
55063;SDS011;40963;52.168;21.296;2023-05-07T05:25:47;3.65;;;2.20;;
55063;SDS011;40963;52.168;21.296;2023-05-07T05:28:13;2.85;;;2.38;;
55063;SDS011;40963;52.168;21.296;2023-05-07T05:30:39;2.83;;;2.28;;
55063;SDS011;40963;52.168;21.296;2023-05-07T05:33:04;2.03;;;1.83;;
55063;SDS011;40963;52.168;21.296;2023-05-07T05:35:30;2.47;;;1.85;;
55063;SDS011;40963;52.168;21.296;2023-05-07T05:37:56;3.70;;;2.10;;
55063;SDS011;40963;52.168;21.296;2023-05-07T05:40:22;2.47;;;2.22;;
55063;SDS011;40963;52.168;21.296;2023-05-07T05:42:48;3.13;;;2.20;;
55063;SDS011;40963;52.168;21.296;2023-05-07T05:45:13;3.65;;;2.03;;
55063;SDS011;40963;52.168;21.296;2023-05-07T05:47:39;2.83;;;1.77;;
55063;SDS011;40963;52.168;21.296;2023-05-07T05:50:06;2.28;;;1.92;;
55063;SDS011;40963;52.168;21.296;2023-05-07T05:52:32;2.50;;;2.00;;
55063;SDS011;40963;52.168;21.296;2023-05-07T05:54:57;3.08;;;2.03;;
55063;SDS011;40963;52.168;21.296;2023-05-07T05:57:23;2.47;;;1.90;;
55063;SDS011;40963;52.168;21.296;2023-05-07T05:59:48;2.83;;;2.10;;
55063;SDS011;40963;52.168;21.296;2023-05-07T06:02:14;3.90;;;2.28;;
55063;SDS011;40963;52.168;21.296;2023-05-07T06:04:39;3.22;;;2.10;;
55063;SDS011;40963;52.168;21.296;2023-05-07T06:07:05;3.83;;;2.30;;
55063;SDS011;40963;52.168;21.296;2023-05-07T06:09:31;4.30;;;2.05;;
55063;SDS011;40963;52.168;21.296;2023-05-07T06:11:57;2.55;;;1.98;;
55063;SDS011;40963;52.168;21.296;2023-05-07T06:14:22;3.17;;;2.53;;
55063;SDS011;40963;52.168;21.296;2023-05-07T06:16:48;3.47;;;1.95;;
55063;SDS011;40963;52.168;21.296;2023-05-07T06:19:13;2.90;;;2.28;;
55063;SDS011;40963;52.168;21.296;2023-05-07T06:21:39;2.22;;;2.00;;
55063;SDS011;40963;52.168;21.296;2023-05-07T06:24:05;4.45;;;2.00;;
55063;SDS011;40963;52.168;21.296;2023-05-07T06:26:31;2.30;;;2.10;;
55063;SDS011;40963;52.168;21.296;2023-05-07T06:28:56;4.57;;;2.30;;
55063;SDS011;40963;52.168;21.296;2023-05-07T06:31:22;2.63;;;2.30;;
55063;SDS011;40963;52.168;21.296;2023-05-07T06:33:48;4.95;;;2.42;;
55063;SDS011;40963;52.168;21.296;2023-05-07T06:36:15;2.25;;;2.05;;
55063;SDS011;40963;52.168;21.296;2023-05-07T06:38:40;2.45;;;2.00;;
55063;SDS011;40963;52.168;21.296;2023-05-07T06:41:06;4.47;;;2.28;;
55063;SDS011;40963;52.168;21.296;2023-05-07T06:43:32;2.75;;;2.08;;
55063;SDS011;40963;52.168;21.296;2023-05-07T06:45:57;2.53;;;2.13;;
55063;SDS011;40963;52.168;21.296;2023-05-07T06:48:23;2.13;;;1.90;;
55063;SDS011;40963;52.168;21.296;2023-05-07T06:50:49;3.00;;;1.95;;
55063;SDS011;40963;52.168;21.296;2023-05-07T06:53:15;4.88;;;2.05;;
55063;SDS011;40963;52.168;21.296;2023-05-07T06:55:41;3.35;;;2.17;;
55063;SDS011;40963;52.168;21.296;2023-05-07T06:58:06;2.10;;;1.80;;
55063;SDS011;40963;52.168;21.296;2023-05-07T07:00:32;2.40;;;2.17;;
55063;SDS011;40963;52.168;21.296;2023-05-07T07:02:57;2.70;;;2.35;;
55063;SDS011;40963;52.168;21.296;2023-05-07T07:05:24;4.05;;;2.00;;
55063;SDS011;40963;52.168;21.296;2023-05-07T07:07:50;5.07;;;1.90;;
55063;SDS011;40963;52.168;21.296;2023-05-07T07:10:19;3.72;;;1.85;;
55063;SDS011;40963;52.168;21.296;2023-05-07T07:12:45;3.78;;;2.20;;
55063;SDS011;40963;52.168;21.296;2023-05-07T07:15:10;2.63;;;1.98;;
55063;SDS011;40963;52.168;21.296;2023-05-07T07:17:36;7.18;;;2.47;;
55063;SDS011;40963;52.168;21.296;2023-05-07T07:20:02;2.08;;;1.80;;
55063;SDS011;40963;52.168;21.296;2023-05-07T07:22:28;2.65;;;1.95;;
55063;SDS011;40963;52.168;21.296;2023-05-07T07:24:54;7.50;;;1.98;;
55063;SDS011;40963;52.168;21.296;2023-05-07T07:27:19;2.60;;;2.28;;
55063;SDS011;40963;52.168;21.296;2023-05-07T07:29:45;3.05;;;2.17;;
55063;SDS011;40963;52.168;21.296;2023-05-07T07:32:11;5.32;;;2.05;;
55063;SDS011;40963;52.168;21.296;2023-05-07T07:34:36;2.70;;;2.22;;
55063;SDS011;40963;52.168;21.296;2023-05-07T07:37:02;3.00;;;2.70;;
55063;SDS011;40963;52.168;21.296;2023-05-07T07:39:31;2.15;;;1.83;;
55063;SDS011;40963;52.168;21.296;2023-05-07T07:41:57;2.33;;;2.00;;
55063;SDS011;40963;52.168;21.296;2023-05-07T07:44:22;4.20;;;2.20;;
55063;SDS011;40963;52.168;21.296;2023-05-07T07:46:48;4.88;;;2.45;;
55063;SDS011;40963;52.168;21.296;2023-05-07T07:49:14;3.63;;;2.72;;
55063;SDS011;40963;52.168;21.296;2023-05-07T07:51:40;2.78;;;1.90;;
55063;SDS011;40963;52.168;21.296;2023-05-07T07:54:05;3.58;;;1.90;;
55063;SDS011;40963;52.168;21.296;2023-05-07T07:56:31;3.95;;;2.55;;
55063;SDS011;40963;52.168;21.296;2023-05-07T07:59:00;3.75;;;2.55;;
55063;SDS011;40963;52.168;21.296;2023-05-07T08:01:26;1.90;;;1.75;;
55063;SDS011;40963;52.168;21.296;2023-05-07T08:03:53;3.13;;;2.40;;
55063;SDS011;40963;52.168;21.296;2023-05-07T08:06:19;5.57;;;2.05;;
55063;SDS011;40963;52.168;21.296;2023-05-07T08:08:44;2.78;;;2.42;;
55063;SDS011;40963;52.168;21.296;2023-05-07T08:11:10;4.03;;;2.05;;
55063;SDS011;40963;52.168;21.296;2023-05-07T08:13:36;2.65;;;2.25;;
55063;SDS011;40963;52.168;21.296;2023-05-07T08:16:03;2.30;;;2.10;;
55063;SDS011;40963;52.168;21.296;2023-05-07T08:18:29;4.95;;;2.38;;
55063;SDS011;40963;52.168;21.296;2023-05-07T08:20:54;1.83;;;1.73;;
55063;SDS011;40963;52.168;21.296;2023-05-07T08:23:20;4.03;;;2.33;;
55063;SDS011;40963;52.168;21.296;2023-05-07T08:25:46;4.30;;;2.72;;
55063;SDS011;40963;52.168;21.296;2023-05-07T08:28:13;4.05;;;2.08;;
55063;SDS011;40963;52.168;21.296;2023-05-07T08:30:38;4.72;;;2.28;;
55063;SDS011;40963;52.168;21.296;2023-05-07T08:33:05;2.78;;;2.35;;
55063;SDS011;40963;52.168;21.296;2023-05-07T08:35:30;2.58;;;2.28;;
55063;SDS011;40963;52.168;21.296;2023-05-07T08:37:56;2.47;;;1.70;;
55063;SDS011;40963;52.168;21.296;2023-05-07T08:40:23;8.60;;;2.60;;
55063;SDS011;40963;52.168;21.296;2023-05-07T08:42:51;4.22;;;2.30;;
55063;SDS011;40963;52.168;21.296;2023-05-07T08:45:18;4.60;;;2.10;;
55063;SDS011;40963;52.168;21.296;2023-05-07T08:47:52;5.70;;;3.08;;
55063;SDS011;40963;52.168;21.296;2023-05-07T08:50:24;4.15;;;2.35;;
55063;SDS011;40963;52.168;21.296;2023-05-07T08:52:49;2.42;;;1.88;;
55063;SDS011;40963;52.168;21.296;2023-05-07T08:55:15;4.47;;;2.15;;
55063;SDS011;40963;52.168;21.296;2023-05-07T08:57:42;11.05;;;1.90;;
55063;SDS011;40963;52.168;21.296;2023-05-07T09:00:08;3.97;;;1.73;;
55063;SDS011;40963;52.168;21.296;2023-05-07T09:02:35;2.22;;;1.83;;
55063;SDS011;40963;52.168;21.296;2023-05-07T09:05:01;3.38;;;1.95;;
55063;SDS011;40963;52.168;21.296;2023-05-07T09:07:28;4.97;;;2.03;;
55063;SDS011;40963;52.168;21.296;2023-05-07T09:09:55;2.72;;;1.90;;
55063;SDS011;40963;52.168;21.296;2023-05-07T09:12:21;3.10;;;2.25;;
55063;SDS011;40963;52.168;21.296;2023-05-07T09:14:48;3.08;;;2.03;;
55063;SDS011;40963;52.168;21.296;2023-05-07T09:17:15;3.30;;;2.08;;
55063;SDS011;40963;52.168;21.296;2023-05-07T09:19:42;3.78;;;2.53;;
55063;SDS011;40963;52.168;21.296;2023-05-07T09:22:10;3.85;;;2.08;;
55063;SDS011;40963;52.168;21.296;2023-05-07T09:24:36;4.75;;;2.38;;
55063;SDS011;40963;52.168;21.296;2023-05-07T09:27:02;5.55;;;2.28;;
55063;SDS011;40963;52.168;21.296;2023-05-07T09:29:29;3.35;;;2.00;;
55063;SDS011;40963;52.168;21.296;2023-05-07T09:32:00;9.20;;;1.98;;
55063;SDS011;40963;52.168;21.296;2023-05-07T09:34:30;2.97;;;2.00;;
55063;SDS011;40963;52.168;21.296;2023-05-07T09:36:58;3.30;;;2.10;;
55063;SDS011;40963;52.168;21.296;2023-05-07T09:39:25;3.58;;;2.05;;
55063;SDS011;40963;52.168;21.296;2023-05-07T09:41:51;5.97;;;2.33;;
55063;SDS011;40963;52.168;21.296;2023-05-07T09:44:19;4.03;;;2.38;;
55063;SDS011;40963;52.168;21.296;2023-05-07T09:46:45;3.38;;;2.10;;
55063;SDS011;40963;52.168;21.296;2023-05-07T09:49:19;4.63;;;2.75;;
55063;SDS011;40963;52.168;21.296;2023-05-07T09:51:50;2.97;;;2.10;;
55063;SDS011;40963;52.168;21.296;2023-05-07T09:54:17;4.57;;;2.35;;
55063;SDS011;40963;52.168;21.296;2023-05-07T09:56:44;2.13;;;1.80;;
55063;SDS011;40963;52.168;21.296;2023-05-07T09:59:14;2.40;;;1.90;;
55063;SDS011;40963;52.168;21.296;2023-05-07T10:01:41;2.97;;;1.73;;
55063;SDS011;40963;52.168;21.296;2023-05-07T10:04:08;3.38;;;1.80;;
55063;SDS011;40963;52.168;21.296;2023-05-07T10:06:35;3.25;;;1.88;;
55063;SDS011;40963;52.168;21.296;2023-05-07T10:09:02;5.70;;;1.95;;
55063;SDS011;40963;52.168;21.296;2023-05-07T10:11:30;2.80;;;2.00;;
55063;SDS011;40963;52.168;21.296;2023-05-07T10:14:00;3.17;;;2.22;;
55063;SDS011;40963;52.168;21.296;2023-05-07T10:16:27;3.35;;;2.00;;
55063;SDS011;40963;52.168;21.296;2023-05-07T10:18:57;6.75;;;1.95;;
55063;SDS011;40963;52.168;21.296;2023-05-07T10:21:24;6.80;;;2.42;;
55063;SDS011;40963;52.168;21.296;2023-05-07T10:23:59;4.20;;;1.70;;
55063;SDS011;40963;52.168;21.296;2023-05-07T10:26:35;4.30;;;1.88;;
55063;SDS011;40963;52.168;21.296;2023-05-07T10:34:29;3.17;;;1.90;;
55063;SDS011;40963;52.168;21.296;2023-05-07T10:37:01;2.90;;;2.05;;
55063;SDS011;40963;52.168;21.296;2023-05-07T10:39:27;4.70;;;2.10;;
55063;SDS011;40963;52.168;21.296;2023-05-07T10:41:52;3.95;;;1.83;;
55063;SDS011;40963;52.168;21.296;2023-05-07T10:44:28;2.58;;;1.70;;
55063;SDS011;40963;52.168;21.296;2023-05-07T10:49:34;2.92;;;1.52;;
55063;SDS011;40963;52.168;21.296;2023-05-07T10:54:42;2.42;;;1.80;;
55063;SDS011;40963;52.168;21.296;2023-05-07T10:59:53;2.20;;;2.00;;
55063;SDS011;40963;52.168;21.296;2023-05-07T11:02:19;3.35;;;1.95;;
55063;SDS011;40963;52.168;21.296;2023-05-07T11:04:44;3.72;;;2.05;;
55063;SDS011;40963;52.168;21.296;2023-05-07T11:07:24;7.05;;;2.15;;
55063;SDS011;40963;52.168;21.296;2023-05-07T11:12:16;2.92;;;2.15;;
55063;SDS011;40963;52.168;21.296;2023-05-07T11:14:45;2.47;;;1.85;;
55063;SDS011;40963;52.168;21.296;2023-05-07T11:17:11;7.28;;;1.85;;
55063;SDS011;40963;52.168;21.296;2023-05-07T11:19:47;2.30;;;2.10;;
55063;SDS011;40963;52.168;21.296;2023-05-07T11:25:01;4.03;;;2.10;;
55063;SDS011;40963;52.168;21.296;2023-05-07T11:27:28;4.35;;;2.05;;
55063;SDS011;40963;52.168;21.296;2023-05-07T11:29:54;2.25;;;1.88;;
55063;SDS011;40963;52.168;21.296;2023-05-07T11:32:27;2.30;;;2.10;;
55063;SDS011;40963;52.168;21.296;2023-05-07T11:34:55;2.92;;;1.98;;
55063;SDS011;40963;52.168;21.296;2023-05-07T11:37:22;2.28;;;1.85;;
55063;SDS011;40963;52.168;21.296;2023-05-07T11:39:49;4.88;;;1.85;;
55063;SDS011;40963;52.168;21.296;2023-05-07T11:42:28;3.63;;;1.80;;
55063;SDS011;40963;52.168;21.296;2023-05-07T11:44:54;2.28;;;2.03;;
55063;SDS011;40963;52.168;21.296;2023-05-07T11:47:20;3.33;;;2.05;;
55063;SDS011;40963;52.168;21.296;2023-05-07T11:49:47;8.23;;;2.13;;
55063;SDS011;40963;52.168;21.296;2023-05-07T11:52:13;10.07;;;1.85;;
55063;SDS011;40963;52.168;21.296;2023-05-07T11:54:39;7.80;;;1.70;;
55063;SDS011;40963;52.168;21.296;2023-05-07T11:57:05;3.67;;;1.80;;
55063;SDS011;40963;52.168;21.296;2023-05-07T11:59:38;2.28;;;2.00;;
55063;SDS011;40963;52.168;21.296;2023-05-07T12:02:05;4.25;;;1.77;;
55063;SDS011;40963;52.168;21.296;2023-05-07T12:04:32;2.03;;;1.80;;
55063;SDS011;40963;52.168;21.296;2023-05-07T12:06:57;15.15;;;2.30;;
55063;SDS011;40963;52.168;21.296;2023-05-07T12:09:23;3.63;;;2.08;;
55063;SDS011;40963;52.168;21.296;2023-05-07T12:11:48;8.43;;;1.90;;
55063;SDS011;40963;52.168;21.296;2023-05-07T12:14:16;3.33;;;1.77;;
55063;SDS011;40963;52.168;21.296;2023-05-07T12:16:42;2.33;;;2.05;;
55063;SDS011;40963;52.168;21.296;2023-05-07T12:19:08;2.38;;;1.40;;
55063;SDS011;40963;52.168;21.296;2023-05-07T12:21:37;3.75;;;2.08;;
55063;SDS011;40963;52.168;21.296;2023-05-07T12:24:04;1.88;;;1.67;;
55063;SDS011;40963;52.168;21.296;2023-05-07T12:26:30;2.63;;;2.08;;
55063;SDS011;40963;52.168;21.296;2023-05-07T12:28:57;2.42;;;1.77;;
55063;SDS011;40963;52.168;21.296;2023-05-07T12:31:22;3.08;;;2.13;;
55063;SDS011;40963;52.168;21.296;2023-05-07T12:33:50;1.55;;;1.45;;
55063;SDS011;40963;52.168;21.296;2023-05-07T12:36:16;5.60;;;1.83;;
55063;SDS011;40963;52.168;21.296;2023-05-07T12:38:42;2.22;;;1.85;;
55063;SDS011;40963;52.168;21.296;2023-05-07T12:41:08;2.15;;;1.90;;
55063;SDS011;40963;52.168;21.296;2023-05-07T12:43:35;2.80;;;2.03;;
55063;SDS011;40963;52.168;21.296;2023-05-07T12:46:02;2.78;;;1.73;;
55063;SDS011;40963;52.168;21.296;2023-05-07T12:48:29;6.60;;;2.00;;
55063;SDS011;40963;52.168;21.296;2023-05-07T12:50:56;2.40;;;1.83;;
55063;SDS011;40963;52.168;21.296;2023-05-07T12:53:23;2.20;;;1.90;;
55063;SDS011;40963;52.168;21.296;2023-05-07T12:55:51;2.75;;;1.98;;
55063;SDS011;40963;52.168;21.296;2023-05-07T12:58:27;1.70;;;1.60;;
55063;SDS011;40963;52.168;21.296;2023-05-07T13:00:55;1.58;;;1.48;;
55063;SDS011;40963;52.168;21.296;2023-05-07T13:03:30;4.00;;;1.63;;
55063;SDS011;40963;52.168;21.296;2023-05-07T13:05:58;2.03;;;1.77;;
55063;SDS011;40963;52.168;21.296;2023-05-07T13:08:33;3.03;;;1.60;;
55063;SDS011;40963;52.168;21.296;2023-05-07T13:11:01;5.72;;;1.70;;
55063;SDS011;40963;52.168;21.296;2023-05-07T13:13:30;6.18;;;1.48;;
55063;SDS011;40963;52.168;21.296;2023-05-07T13:15:57;2.28;;;1.67;;
55063;SDS011;40963;52.168;21.296;2023-05-07T13:18:24;1.92;;;1.70;;
55063;SDS011;40963;52.168;21.296;2023-05-07T13:20:50;2.05;;;1.50;;
55063;SDS011;40963;52.168;21.296;2023-05-07T13:23:16;1.50;;;1.40;;
55063;SDS011;40963;52.168;21.296;2023-05-07T13:25:42;1.50;;;1.40;;
55063;SDS011;40963;52.168;21.296;2023-05-07T13:28:07;5.85;;;1.67;;
55063;SDS011;40963;52.168;21.296;2023-05-07T13:30:33;2.85;;;1.70;;
55063;SDS011;40963;52.168;21.296;2023-05-07T13:32:59;2.22;;;1.50;;
55063;SDS011;40963;52.168;21.296;2023-05-07T13:35:24;1.92;;;1.50;;
55063;SDS011;40963;52.168;21.296;2023-05-07T13:37:50;1.77;;;1.67;;
55063;SDS011;40963;52.168;21.296;2023-05-07T13:40:17;2.97;;;1.67;;
55063;SDS011;40963;52.168;21.296;2023-05-07T13:42:44;2.17;;;1.80;;
55063;SDS011;40963;52.168;21.296;2023-05-07T13:45:10;1.73;;;1.30;;
55063;SDS011;40963;52.168;21.296;2023-05-07T13:47:35;3.10;;;1.30;;
55063;SDS011;40963;52.168;21.296;2023-05-07T13:50:01;1.70;;;1.50;;
55063;SDS011;40963;52.168;21.296;2023-05-07T13:52:26;1.50;;;1.40;;
55063;SDS011;40963;52.168;21.296;2023-05-07T13:54:52;2.08;;;1.48;;
55063;SDS011;40963;52.168;21.296;2023-05-07T13:57:18;2.28;;;1.50;;
55063;SDS011;40963;52.168;21.296;2023-05-07T13:59:43;3.50;;;1.40;;
55063;SDS011;40963;52.168;21.296;2023-05-07T14:02:09;5.70;;;1.85;;
55063;SDS011;40963;52.168;21.296;2023-05-07T14:04:35;4.65;;;1.85;;
55063;SDS011;40963;52.168;21.296;2023-05-07T14:07:02;6.18;;;1.60;;
55063;SDS011;40963;52.168;21.296;2023-05-07T14:09:28;1.65;;;1.52;;
55063;SDS011;40963;52.168;21.296;2023-05-07T14:11:54;1.55;;;1.33;;
55063;SDS011;40963;52.168;21.296;2023-05-07T14:14:20;4.63;;;1.65;;
55063;SDS011;40963;52.168;21.296;2023-05-07T14:16:45;3.47;;;1.13;;
55063;SDS011;40963;52.168;21.296;2023-05-07T14:19:11;4.00;;;1.70;;
55063;SDS011;40963;52.168;21.296;2023-05-07T14:21:37;1.52;;;1.25;;
55063;SDS011;40963;52.168;21.296;2023-05-07T14:24:03;1.90;;;1.40;;
55063;SDS011;40963;52.168;21.296;2023-05-07T14:26:29;3.88;;;1.50;;
55063;SDS011;40963;52.168;21.296;2023-05-07T14:28:55;1.38;;;1.20;;
55063;SDS011;40963;52.168;21.296;2023-05-07T14:31:23;2.60;;;1.35;;
55063;SDS011;40963;52.168;21.296;2023-05-07T14:33:49;2.05;;;1.42;;
55063;SDS011;40963;52.168;21.296;2023-05-07T14:36:15;2.05;;;1.25;;
55063;SDS011;40963;52.168;21.296;2023-05-07T14:38:42;1.63;;;1.33;;
55063;SDS011;40963;52.168;21.296;2023-05-07T14:41:07;1.52;;;1.40;;
55063;SDS011;40963;52.168;21.296;2023-05-07T14:43:33;1.52;;;1.35;;
55063;SDS011;40963;52.168;21.296;2023-05-07T14:45:58;2.67;;;1.35;;
55063;SDS011;40963;52.168;21.296;2023-05-07T14:48:24;3.70;;;1.20;;